Time;durP1;ratioP1;P1;durP2;ratioP2;P2;SDS_P1;SDS_P2;PMS_P1;PMS_P2;Temp;Humidity;BMP_temperature;BMP_pressure;BME280_temperature;BME280_humidity;BME280_pressure;Samples;Min_cycle;Max_cycle;Signal;HPM_P1;HPM_P2
2022/02/14 00:02:19;;;;;;;;;;;10.20;99.90;;;;;;8410819;28;20003;-69
2022/02/14 00:06:21;;;;;;;;;;;10.30;99.90;;;;;;8411776;28;19983;-69
2022/02/14 00:10:22;;;;;;;;;;;10.30;99.90;;;;;;8401785;28;19972;-69
2022/02/14 00:14:24;;;;;;;;;;;10.30;99.90;;;;;;8393135;28;19925;-69
2022/02/14 00:18:25;;;;;;;;;;;10.30;99.90;;;;;;8404410;28;19932;-69
2022/02/14 00:22:27;;;;;;;;;;;10.30;99.90;;;;;;8401772;28;19924;-69
2022/02/14 00:26:29;;;;;;;;;;;10.30;99.90;;;;;;8400857;28;19971;-69
2022/02/14 00:30:30;;;;;;;;;;;10.30;99.90;;;;;;8372648;28;20011;-69
2022/02/14 00:34:32;;;;;;;;;;;10.30;99.90;;;;;;8403629;28;20352;-69
2022/02/14 00:38:34;;;;;;;;;;;10.30;99.90;;;;;;8386497;28;19968;-69
2022/02/14 00:42:35;;;;;;;;;;;10.20;99.90;;;;;;8397555;28;19932;-69
2022/02/14 00:46:37;;;;;;;;;;;10.30;99.90;;;;;;8405406;28;20382;-69
2022/02/14 00:50:39;;;;;;;;;;;10.30;99.90;;;;;;8382531;28;19968;-69
2022/02/14 00:54:42;;;;;;;;;;;10.20;99.90;;;;;;8396866;28;20482;-69
2022/02/14 00:58:44;;;;;;;;;;;10.20;99.90;;;;;;8399616;28;20392;-69
2022/02/14 01:02:46;;;;;;;;;;;10.20;99.90;;;;;;8400234;28;19960;-69
2022/02/14 01:06:48;;;;;;;;;;;10.20;99.90;;;;;;8401763;28;19956;-69
2022/02/14 01:10:49;;;;;;;;;;;10.10;99.90;;;;;;8396037;28;20344;-69
2022/02/14 01:14:51;;;;;;;;;;;10.10;99.90;;;;;;8405001;28;19963;-69
2022/02/14 01:18:53;;;;;;;;;;;10.10;99.90;;;;;;8399120;28;19963;-69
2022/02/14 01:22:54;;;;;;;;;;;10.10;99.90;;;;;;8395275;28;20007;-69
2022/02/14 01:26:56;;;;;;;;;;;10.10;99.90;;;;;;8400532;28;19959;-69
2022/02/14 01:30:58;;;;;;;;;;;10.10;99.90;;;;;;8377534;28;20445;-69
2022/02/14 01:34:59;;;;;;;;;;;10.10;99.90;;;;;;8382795;28;19969;-69
2022/02/14 01:39:01;;;;;;;;;;;10.10;99.90;;;;;;8394986;28;20023;-69
2022/02/14 01:43:03;;;;;;;;;;;10.10;99.90;;;;;;8377822;28;20011;-69
2022/02/14 01:47:15;;;;;;;;;;;10.10;99.90;;;;;;8401154;28;19931;-69
2022/02/14 01:51:16;;;;;;;;;;;10.10;99.90;;;;;;8386292;28;19960;-69
2022/02/14 01:55:18;;;;;;;;;;;10.10;99.90;;;;;;8401140;28;19928;-69
2022/02/14 01:59:19;;;;;;;;;;;10.10;99.90;;;;;;8401601;28;19932;-69
2022/02/14 02:03:24;;;;;;;;;;;10.20;99.90;;;;;;8400759;28;20007;-69
2022/02/14 02:07:27;;;;;;;;;;;10.20;99.90;;;;;;8397686;28;20412;-69
2022/02/14 02:15:49;;;;;;;;;;;10.20;99.90;;;;;;8401396;28;19978;-69
2022/02/14 02:19:51;;;;;;;;;;;10.30;99.90;;;;;;8400096;28;19928;-69
2022/02/14 02:23:55;;;;;;;;;;;10.30;99.90;;;;;;8394173;28;19975;-69
2022/02/14 02:27:57;;;;;;;;;;;10.30;99.90;;;;;;8402160;28;19924;-69
2022/02/14 02:31:58;;;;;;;;;;;10.30;99.90;;;;;;8412178;28;20027;-69
2022/02/14 02:36:00;;;;;;;;;;;10.30;99.90;;;;;;8388583;28;19974;-69
2022/02/14 02:40:03;;;;;;;;;;;10.30;99.90;;;;;;8389570;28;19975;-69
2022/02/14 02:44:04;;;;;;;;;;;10.20;99.90;;;;;;8381409;28;19971;-69
2022/02/14 02:48:06;;;;;;;;;;;10.20;99.90;;;;;;8387718;28;19932;-69
2022/02/14 02:52:08;;;;;;;;;;;10.30;99.90;;;;;;8388327;28;19924;-69
2022/02/14 02:56:11;;;;;;;;;;;10.30;99.90;;;;;;8389932;28;19963;-69
2022/02/14 03:00:12;;;;;;;;;;;10.30;99.90;;;;;;8407891;28;19967;-69
2022/02/14 03:04:15;;;;;;;;;;;10.30;99.90;;;;;;8383618;28;19971;-69
2022/02/14 03:08:16;;;;;;;;;;;10.30;99.90;;;;;;8388599;28;19924;-69
2022/02/14 03:12:18;;;;;;;;;;;10.40;99.90;;;;;;8401385;28;19964;-69
2022/02/14 03:16:21;;;;;;;;;;;10.40;99.90;;;;;;8404010;28;20026;-69
2022/02/14 03:20:23;;;;;;;;;;;10.40;99.90;;;;;;8406765;28;19924;-69
2022/02/14 03:24:25;;;;;;;;;;;10.50;99.90;;;;;;8380024;28;19924;-69
2022/02/14 03:28:27;;;;;;;;;;;10.50;99.90;;;;;;8382072;28;20546;-69
2022/02/14 03:32:28;;;;;;;;;;;10.50;99.90;;;;;;8400108;28;19944;-69
2022/02/14 03:36:30;;;;;;;;;;;10.60;99.90;;;;;;8405911;28;20039;-69
2022/02/14 03:40:32;;;;;;;;;;;10.60;99.90;;;;;;8410571;28;19974;-69
2022/02/14 03:44:33;;;;;;;;;;;10.60;99.90;;;;;;8381571;28;19952;-69
2022/02/14 03:48:35;;;;;;;;;;;10.60;99.90;;;;;;8383915;28;19928;-69
2022/02/14 03:52:37;;;;;;;;;;;10.60;99.90;;;;;;8400472;28;20026;-69
2022/02/14 03:56:38;;;;;;;;;;;10.70;99.90;;;;;;8409187;28;20367;-69
2022/02/14 04:00:41;;;;;;;;;;;10.60;99.90;;;;;;8385670;28;20308;-69
2022/02/14 04:04:45;;;;;;;;;;;10.60;99.90;;;;;;8392591;28;19924;-69
2022/02/14 04:08:46;;;;;;;;;;;10.70;99.90;;;;;;8398434;28;19968;-69
2022/02/14 04:12:48;;;;;;;;;;;10.70;99.90;;;;;;8386043;28;19963;-69
2022/02/14 04:16:49;;;;;;;;;;;10.70;99.90;;;;;;8388609;28;20014;-69
2022/02/14 04:20:51;;;;;;;;;;;10.70;99.90;;;;;;8407275;28;19979;-69
2022/02/14 04:24:53;;;;;;;;;;;10.70;99.90;;;;;;8406686;28;20333;-69
2022/02/14 04:28:54;;;;;;;;;;;10.70;99.90;;;;;;8399141;28;20020;-69
2022/02/14 04:32:59;;;;;;;;;;;10.70;99.90;;;;;;8398347;28;19928;-69
2022/02/14 04:37:02;;;;;;;;;;;10.70;99.90;;;;;;8379238;28;19924;-69
2022/02/14 04:41:03;;;;;;;;;;;10.70;99.90;;;;;;8402094;28;19924;-69
2022/02/14 04:45:08;;;;;;;;;;;10.70;99.90;;;;;;8403026;28;20333;-69
2022/02/14 04:49:10;;;;;;;;;;;10.70;99.90;;;;;;8396856;28;19934;-69
2022/02/14 04:53:11;;;;;;;;;;;10.70;99.90;;;;;;8374917;28;19935;-69
2022/02/14 04:57:13;;;;;;;;;;;10.70;99.90;;;;;;8399967;28;19964;-69
2022/02/14 05:01:16;;;;;;;;;;;10.70;99.90;;;;;;8401260;28;20390;-69
2022/02/14 05:05:18;;;;;;;;;;;10.70;99.90;;;;;;8406255;28;20358;-69
2022/02/14 05:09:19;;;;;;;;;;;10.80;99.90;;;;;;8385632;28;19964;-69
2022/02/14 05:13:21;;;;;;;;;;;10.80;99.90;;;;;;8401729;28;20023;-69
2022/02/14 05:17:23;;;;;;;;;;;10.80;99.90;;;;;;8379009;28;19963;-69
2022/02/14 05:21:24;;;;;;;;;;;10.80;99.90;;;;;;8401435;28;19974;-69
2022/02/14 05:25:26;;;;;;;;;;;10.80;99.90;;;;;;8399993;28;19931;-69
2022/02/14 05:29:28;;;;;;;;;;;10.90;99.90;;;;;;8378164;28;20386;-69
2022/02/14 05:33:29;;;;;;;;;;;10.90;99.90;;;;;;8401214;28;20015;-69
2022/02/14 05:37:31;;;;;;;;;;;10.90;99.90;;;;;;8399510;28;19968;-69
2022/02/14 05:41:35;;;;;;;;;;;10.90;99.90;;;;;;8380351;28;23848;-69
2022/02/14 05:45:36;;;;;;;;;;;10.90;99.90;;;;;;8376449;28;20007;-69
2022/02/14 05:49:38;;;;;;;;;;;10.90;99.90;;;;;;8386489;28;19932;-69
2022/02/14 05:53:40;;;;;;;;;;;10.90;99.90;;;;;;8400408;28;20011;-69
2022/02/14 05:57:41;;;;;;;;;;;10.90;99.90;;;;;;8383003;28;19975;-69
2022/02/14 06:01:43;;;;;;;;;;;11.00;99.90;;;;;;8390593;28;19931;-69
2022/02/14 06:05:45;;;;;;;;;;;11.00;99.90;;;;;;8399157;28;20363;-69
2022/02/14 06:09:46;;;;;;;;;;;11.00;99.90;;;;;;8388494;28;19971;-69
2022/02/14 06:13:48;;;;;;;;;;;11.00;99.90;;;;;;8403218;28;19964;-69
2022/02/14 06:17:49;;;;;;;;;;;11.10;99.90;;;;;;8401910;28;20353;-69
2022/02/14 06:21:51;;;;;;;;;;;11.10;99.90;;;;;;8394947;28;19960;-69
2022/02/14 06:25:53;;;;;;;;;;;11.10;99.90;;;;;;8394135;28;19972;-69
2022/02/14 06:29:54;;;;;;;;;;;11.20;99.90;;;;;;8393640;28;20439;-69
2022/02/14 06:33:56;;;;;;;;;;;11.20;99.90;;;;;;8374131;28;19972;-69
2022/02/14 06:37:58;;;;;;;;;;;11.20;99.90;;;;;;8396628;28;20408;-69
2022/02/14 06:41:59;;;;;;;;;;;11.20;99.90;;;;;;8404067;28;19948;-69
2022/02/14 06:46:01;;;;;;;;;;;11.20;99.90;;;;;;8399724;28;19974;-69
2022/02/14 06:50:03;;;;;;;;;;;11.20;99.90;;;;;;8392376;28;20356;-69
2022/02/14 06:54:05;;;;;;;;;;;11.10;99.90;;;;;;8395324;28;19925;-69
2022/02/14 06:58:07;;;;;;;;;;;11.10;99.90;;;;;;8372633;28;20070;-69
2022/02/14 07:02:08;;;;;;;;;;;11.00;99.90;;;;;;8387888;28;19975;-69
2022/02/14 07:06:10;;;;;;;;;;;11.00;99.90;;;;;;8396750;28;19924;-69
2022/02/14 07:10:12;;;;;;;;;;;11.00;99.90;;;;;;8399156;28;19947;-69
2022/02/14 07:14:16;;;;;;;;;;;10.90;99.90;;;;;;8407111;28;19924;-69
2022/02/14 07:18:18;;;;;;;;;;;10.90;99.90;;;;;;8404526;28;19975;-69
2022/02/14 07:22:19;;;;;;;;;;;10.80;99.90;;;;;;8408343;28;19964;-69
2022/02/14 07:26:21;;;;;;;;;;;10.60;99.90;;;;;;8408747;28;19939;-69
2022/02/14 07:30:23;;;;;;;;;;;10.10;99.90;;;;;;8408546;28;19928;-69
2022/02/14 07:34:24;;;;;;;;;;;9.60;99.90;;;;;;8408780;28;19964;-69
2022/02/14 07:38:26;;;;;;;;;;;9.30;99.90;;;;;;8391448;28;19946;-69
2022/02/14 07:42:28;;;;;;;;;;;9.10;99.90;;;;;;8386801;28;19960;-69
2022/02/14 07:46:29;;;;;;;;;;;8.90;99.90;;;;;;8420127;28;19975;-68
2022/02/14 07:50:31;;;;;;;;;;;8.80;99.90;;;;;;8409804;28;20020;-68
2022/02/14 07:54:32;;;;;;;;;;;8.70;99.90;;;;;;8389179;28;19925;-68
2022/02/14 07:58:36;;;;;;;;;;;8.60;99.90;;;;;;8408917;28;19928;-68
2022/02/14 08:02:38;;;;;;;;;;;8.50;99.90;;;;;;8402433;28;20466;-68
2022/02/14 08:06:40;;;;;;;;;;;8.50;99.90;;;;;;8409086;28;19928;-68
2022/02/14 08:10:41;;;;;;;;;;;8.50;99.90;;;;;;8404838;28;19933;-68
2022/02/14 08:14:45;;;;;;;;;;;8.50;99.90;;;;;;8392987;28;20028;-68
2022/02/14 08:18:46;;;;;;;;;;;8.50;99.90;;;;;;8407186;28;20011;-69
2022/02/14 08:22:49;;;;;;;;;;;8.50;99.90;;;;;;8403626;28;19932;-68
2022/02/14 08:26:51;;;;;;;;;;;8.60;99.90;;;;;;8409609;28;19963;-69
2022/02/14 08:30:53;;;;;;;;;;;8.60;99.90;;;;;;8408820;28;20016;-68
2022/02/14 08:34:55;;;;;;;;;;;8.70;99.90;;;;;;8407104;28;19924;-68
2022/02/14 08:38:57;;;;;;;;;;;8.80;99.90;;;;;;8401632;28;19932;-68
2022/02/14 08:43:00;;;;;;;;;;;8.80;99.90;;;;;;8412032;28;19966;-68
2022/02/14 08:47:02;;;;;;;;;;;8.80;99.90;;;;;;8407406;28;20005;-68
2022/02/14 08:51:05;;;;;;;;;;;8.90;99.90;;;;;;8412726;28;20032;-68
2022/02/14 08:55:08;;;;;;;;;;;9.00;99.90;;;;;;8385905;28;20008;-68
2022/02/14 08:59:13;;;;;;;;;;;9.10;99.90;;;;;;8412907;28;19967;-69
2022/02/14 09:03:15;;;;;;;;;;;9.10;99.90;;;;;;8387975;28;19924;-68
2022/02/14 09:07:16;;;;;;;;;;;9.20;99.90;;;;;;8405230;28;19979;-68
2022/02/14 09:11:18;;;;;;;;;;;9.20;99.90;;;;;;8386551;28;19924;-68
2022/02/14 09:15:19;;;;;;;;;;;9.20;99.90;;;;;;8383257;28;19924;-68
2022/02/14 09:19:21;;;;;;;;;;;9.30;99.90;;;;;;8386057;28;20031;-68
2022/02/14 09:23:22;;;;;;;;;;;9.30;99.90;;;;;;8385411;28;19924;-68
2022/02/14 09:27:24;;;;;;;;;;;9.30;99.90;;;;;;8383587;28;20435;-68
2022/02/14 09:31:26;;;;;;;;;;;9.30;99.90;;;;;;8411768;28;20415;-68
2022/02/14 09:35:27;;;;;;;;;;;9.30;99.90;;;;;;8414777;28;20019;-68
2022/02/14 09:39:32;;;;;;;;;;;9.30;99.90;;;;;;8394048;28;19984;-69
2022/02/14 09:43:34;;;;;;;;;;;9.30;99.90;;;;;;8404889;28;19974;-68
2022/02/14 09:47:37;;;;;;;;;;;9.30;99.90;;;;;;8410965;28;19969;-68
2022/02/14 09:51:38;;;;;;;;;;;9.20;99.90;;;;;;8406252;28;20387;-68
2022/02/14 09:55:40;;;;;;;;;;;9.10;99.90;;;;;;8408625;28;19931;-68
2022/02/14 09:59:42;;;;;;;;;;;9.10;99.90;;;;;;8406987;28;19924;-68
2022/02/14 10:03:53;;;;;;;;;;;9.10;99.90;;;;;;8408114;28;19935;-68
2022/02/14 10:07:55;;;;;;;;;;;9.20;99.90;;;;;;8385943;28;20228;-69
2022/02/14 10:12:09;;;;;;;;;;;9.30;99.90;;;;;;8390981;28;19979;-68
2022/02/14 10:16:13;;;;;;;;;;;9.40;99.90;;;;;;8385499;28;19951;-68
2022/02/14 10:20:18;;;;;;;;;;;9.50;99.90;;;;;;8402485;28;19956;-69
2022/02/14 10:24:19;;;;;;;;;;;9.50;99.90;;;;;;8386424;28;19932;-68
2022/02/14 10:28:25;;;;;;;;;;;9.60;99.90;;;;;;8391352;28;19947;-69
2022/02/14 10:32:27;;;;;;;;;;;9.60;99.90;;;;;;8403440;28;20292;-69
2022/02/14 10:36:29;;;;;;;;;;;9.70;99.90;;;;;;8404873;28;19935;-68
2022/02/14 10:40:35;;;;;;;;;;;9.70;99.90;;;;;;8385148;28;19968;-68
2022/02/14 10:49:01;;;;;;;;;;;9.90;99.90;;;;;;8405866;28;19925;-68
2022/02/14 10:53:23;;;;;;;;;;;9.90;99.90;;;;;;8413192;28;19933;-69
2022/02/14 10:57:32;;;;;;;;;;;9.90;99.90;;;;;;8388009;28;19932;-68
2022/02/14 11:01:33;;;;;;;;;;;9.80;99.90;;;;;;8407005;28;19974;-69
2022/02/14 11:05:36;;;;;;;;;;;9.80;99.90;;;;;;8402155;28;20406;-68
2022/02/14 11:09:38;;;;;;;;;;;9.70;99.90;;;;;;8413001;28;19947;-68
2022/02/14 11:13:40;;;;;;;;;;;9.80;99.90;;;;;;8416813;28;20015;-69
2022/02/14 11:17:44;;;;;;;;;;;9.80;99.90;;;;;;8394461;28;19924;-68
2022/02/14 11:21:46;;;;;;;;;;;9.80;99.90;;;;;;8405779;28;20415;-68
2022/02/14 11:25:58;;;;;;;;;;;9.90;99.90;;;;;;8390067;28;19932;-68
2022/02/14 11:30:05;;;;;;;;;;;10.00;99.90;;;;;;8412834;28;20387;-68
2022/02/14 11:34:11;;;;;;;;;;;10.20;99.90;;;;;;8397574;28;20295;-68
2022/02/14 11:38:13;;;;;;;;;;;10.80;99.90;;;;;;8387643;28;19964;-69
2022/02/14 11:42:14;;;;;;;;;;;11.40;99.90;;;;;;8400692;28;20275;-69
2022/02/14 11:46:20;;;;;;;;;;;11.90;99.90;;;;;;8408461;28;19932;-69
2022/02/14 11:50:41;;;;;;;;;;;11.80;99.90;;;;;;8409014;28;19925;-68
2022/02/14 11:54:44;;;;;;;;;;;11.60;99.90;;;;;;8386885;28;19924;-68
2022/02/14 11:58:57;;;;;;;;;;;11.80;99.90;;;;;;8408784;28;20340;-68
2022/02/14 12:03:11;;;;;;;;;;;12.10;99.90;;;;;;8386954;28;19944;-69
2022/02/14 12:07:13;;;;;;;;;;;11.90;99.90;;;;;;8389802;28;19936;-69
2022/02/14 12:11:14;;;;;;;;;;;12.30;99.90;;;;;;8386535;28;20007;-69
2022/02/14 12:20:34;;;;;;;;;;;12.00;99.90;;;;;;8409438;28;19932;-69
2022/02/14 12:24:16;;;;;;;;;;;11.10;99.90;;;;;;8410439;28;19986;-69
2022/02/14 12:28:21;;;;;;;;;;;10.80;99.90;;;;;;8405084;28;19924;-69
2022/02/14 12:32:22;;;;;;;;;;;10.90;99.90;;;;;;8409907;28;19989;-69
2022/02/14 12:36:24;;;;;;;;;;;10.60;99.90;;;;;;8415358;28;20030;-69
2022/02/14 12:40:43;;;;;;;;;;;10.50;99.90;;;;;;8393183;28;20008;-69
2022/02/14 12:44:45;;;;;;;;;;;10.40;99.90;;;;;;8392229;28;19928;-69
2022/02/14 12:48:49;;;;;;;;;;;10.40;99.90;;;;;;8396875;28;19924;-69
2022/02/14 12:52:51;;;;;;;;;;;10.80;99.90;;;;;;8405589;28;20299;-69
2022/02/14 12:56:56;;;;;;;;;;;11.40;99.90;;;;;;8414313;28;20379;-69
2022/02/14 13:01:04;;;;;;;;;;;11.70;99.90;;;;;;8406449;28;19924;-69
2022/02/14 13:05:09;;;;;;;;;;;12.40;99.90;;;;;;8406991;28;19996;-69
2022/02/14 13:09:19;;;;;;;;;;;12.70;99.90;;;;;;8404013;28;19929;-69
2022/02/14 13:13:30;;;;;;;;;;;12.50;99.90;;;;;;8382802;28;19936;-69
2022/02/14 13:17:34;;;;;;;;;;;12.30;99.90;;;;;;8410587;28;19928;-69
2022/02/14 13:21:41;;;;;;;;;;;12.20;99.90;;;;;;8403068;28;19976;-68
2022/02/14 13:25:48;;;;;;;;;;;12.10;99.90;;;;;;8408057;28;20372;-69
2022/02/14 13:29:50;;;;;;;;;;;11.90;99.90;;;;;;8394283;28;20284;-68
2022/02/14 13:33:53;;;;;;;;;;;12.00;99.90;;;;;;8394953;28;19975;-69
2022/02/14 13:37:56;;;;;;;;;;;12.10;99.90;;;;;;8405282;28;19974;-68
2022/02/14 13:41:59;;;;;;;;;;;12.10;99.90;;;;;;8391044;28;19943;-69
2022/02/14 13:46:02;;;;;;;;;;;12.10;99.90;;;;;;8390121;28;20319;-69
2022/02/14 13:50:22;;;;;;;;;;;11.80;99.90;;;;;;8405500;28;19931;-69
2022/02/14 13:54:24;;;;;;;;;;;11.40;99.90;;;;;;8408161;28;20276;-69
2022/02/14 13:58:29;;;;;;;;;;;10.10;99.90;;;;;;8401086;28;19932;-70
2022/02/14 14:02:31;;;;;;;;;;;8.50;99.90;;;;;;8402617;28;20351;-70
2022/02/14 14:06:49;;;;;;;;;;;7.50;99.90;;;;;;8389194;28;19924;-69
2022/02/14 14:10:53;;;;;;;;;;;7.10;99.90;;;;;;8414056;28;19943;-69
2022/02/14 14:14:56;;;;;;;;;;;7.00;99.90;;;;;;8386713;28;20345;-70
2022/02/14 14:18:58;;;;;;;;;;;7.10;99.90;;;;;;8392706;28;20042;-70
2022/02/14 14:22:59;;;;;;;;;;;7.10;99.90;;;;;;8406446;28;19925;-69
2022/02/14 14:27:01;;;;;;;;;;;7.20;99.90;;;;;;8402344;28;19975;-69
2022/02/14 14:31:04;;;;;;;;;;;7.30;99.90;;;;;;8392229;28;20011;-69
2022/02/14 14:35:05;;;;;;;;;;;7.40;99.90;;;;;;8410159;28;19982;-69
2022/02/14 14:39:07;;;;;;;;;;;7.50;99.90;;;;;;8383294;28;20292;-69
2022/02/14 14:43:09;;;;;;;;;;;7.60;99.90;;;;;;8406211;28;19956;-69
2022/02/14 14:47:14;;;;;;;;;;;8.20;99.90;;;;;;8387427;28;19924;-69
2022/02/14 14:51:16;;;;;;;;;;;9.30;99.90;;;;;;8381871;28;19968;-69
2022/02/14 14:55:17;;;;;;;;;;;10.40;99.90;;;;;;8387348;28;19967;-69
2022/02/14 14:59:19;;;;;;;;;;;11.30;99.90;;;;;;8411668;28;20090;-69
2022/02/14 15:03:21;;;;;;;;;;;12.10;99.90;;;;;;8403080;28;19971;-69
2022/02/14 15:07:24;;;;;;;;;;;12.50;99.90;;;;;;8383881;28;19967;-69
2022/02/14 15:11:25;;;;;;;;;;;12.00;99.90;;;;;;8406106;28;20597;-69
2022/02/14 15:15:27;;;;;;;;;;;11.10;99.90;;;;;;8405328;28;20368;-69
2022/02/14 15:19:29;;;;;;;;;;;10.40;99.90;;;;;;8401833;28;19971;-69
2022/02/14 15:23:30;;;;;;;;;;;10.30;99.90;;;;;;8381534;28;19932;-69
2022/02/14 15:27:32;;;;;;;;;;;10.40;99.90;;;;;;8408232;28;20323;-69
2022/02/14 15:31:33;;;;;;;;;;;10.30;99.90;;;;;;8390420;28;20358;-69
2022/02/14 15:35:35;;;;;;;;;;;10.10;99.90;;;;;;8403572;28;19979;-69
2022/02/14 15:39:37;;;;;;;;;;;9.80;99.90;;;;;;8414657;28;19925;-69
2022/02/14 15:43:39;;;;;;;;;;;9.60;99.90;;;;;;8410229;28;19956;-69
2022/02/14 15:47:41;;;;;;;;;;;9.50;99.90;;;;;;8401123;28;19924;-69
2022/02/14 15:51:43;;;;;;;;;;;9.70;99.90;;;;;;8408728;28;19972;-69
2022/02/14 15:55:45;;;;;;;;;;;9.80;99.90;;;;;;8380750;28;19935;-69
2022/02/14 15:59:46;;;;;;;;;;;9.80;99.90;;;;;;8376124;28;19978;-69
2022/02/14 16:03:48;;;;;;;;;;;9.90;99.90;;;;;;8388667;28;19964;-69
2022/02/14 16:07:50;;;;;;;;;;;10.30;99.90;;;;;;8386229;28;19964;-69
2022/02/14 16:11:54;;;;;;;;;;;10.70;99.90;;;;;;8359636;28;20035;-69
2022/02/14 16:15:56;;;;;;;;;;;11.10;99.90;;;;;;8392698;28;20355;-69
2022/02/14 16:19:58;;;;;;;;;;;11.10;99.90;;;;;;8383295;28;20015;-69
2022/02/14 16:24:00;;;;;;;;;;;11.00;99.90;;;;;;8379368;28;19968;-69
2022/02/14 16:28:02;;;;;;;;;;;10.80;99.90;;;;;;8393734;28;19976;-69
2022/02/14 16:32:03;;;;;;;;;;;10.40;99.90;;;;;;8378233;28;19924;-69
2022/02/14 16:36:05;;;;;;;;;;;9.90;99.90;;;;;;8393695;28;19928;-69
2022/02/14 16:40:08;;;;;;;;;;;9.50;99.90;;;;;;8386603;28;20332;-69
2022/02/14 16:44:10;;;;;;;;;;;9.20;99.90;;;;;;8363112;28;21258;-69
2022/02/14 16:48:11;;;;;;;;;;;9.00;99.90;;;;;;8363081;28;20342;-69
2022/02/14 16:52:13;;;;;;;;;;;8.80;99.90;;;;;;8386980;28;19975;-69
2022/02/14 16:56:14;;;;;;;;;;;8.60;99.90;;;;;;8390023;28;20403;-69
2022/02/14 17:00:21;;;;;;;;;;;8.60;99.90;;;;;;8386304;28;20032;-69
2022/02/14 17:04:23;;;;;;;;;;;8.50;99.90;;;;;;8365941;28;20333;-69
2022/02/14 17:08:24;;;;;;;;;;;8.40;99.90;;;;;;8368857;28;20414;-69
2022/02/14 17:12:26;;;;;;;;;;;8.40;99.90;;;;;;8366739;28;20409;-69
2022/02/14 17:16:28;;;;;;;;;;;8.30;99.90;;;;;;8385661;28;20371;-69
2022/02/14 17:20:29;;;;;;;;;;;8.40;99.90;;;;;;8389498;28;19971;-69
2022/02/14 17:24:31;;;;;;;;;;;8.30;99.90;;;;;;8385072;28;19932;-69
2022/02/14 17:28:32;;;;;;;;;;;8.30;99.90;;;;;;8386249;28;20375;-69
2022/02/14 17:32:34;;;;;;;;;;;8.30;99.90;;;;;;8393338;28;20027;-69
2022/02/14 17:36:37;;;;;;;;;;;8.40;99.90;;;;;;8390178;28;19939;-69
2022/02/14 17:40:39;;;;;;;;;;;8.40;99.90;;;;;;8369570;28;19928;-69
2022/02/14 17:44:44;;;;;;;;;;;8.40;99.90;;;;;;8391355;28;19928;-69
2022/02/14 17:48:46;;;;;;;;;;;8.40;99.90;;;;;;8388274;28;19972;-69
2022/02/14 17:52:47;;;;;;;;;;;8.40;99.90;;;;;;8371291;28;20014;-69
2022/02/14 17:56:49;;;;;;;;;;;8.30;99.90;;;;;;8391176;28;19983;-69
2022/02/14 18:00:50;;;;;;;;;;;8.20;99.90;;;;;;8369683;28;20027;-69
2022/02/14 18:04:52;;;;;;;;;;;8.20;99.90;;;;;;8383819;28;20499;-69
2022/02/14 18:08:54;;;;;;;;;;;8.10;99.90;;;;;;8377752;28;20323;-69
2022/02/14 18:12:55;;;;;;;;;;;8.10;99.90;;;;;;8373013;28;19979;-69
2022/02/14 18:17:00;;;;;;;;;;;8.10;99.90;;;;;;8391494;28;19988;-69
2022/02/14 18:21:01;;;;;;;;;;;8.00;99.90;;;;;;8392496;28;20466;-69
2022/02/14 18:25:04;;;;;;;;;;;7.90;99.90;;;;;;8375899;28;19986;-69
2022/02/14 18:29:06;;;;;;;;;;;7.90;99.90;;;;;;8392503;28;19935;-69
2022/02/14 18:33:08;;;;;;;;;;;7.80;99.90;;;;;;8394979;28;20022;-69
2022/02/14 18:37:10;;;;;;;;;;;7.70;99.90;;;;;;8381361;28;20347;-69
2022/02/14 18:41:11;;;;;;;;;;;7.70;99.90;;;;;;8396503;28;19983;-69
2022/02/14 18:45:20;;;;;;;;;;;7.70;99.90;;;;;;8364363;28;19974;-68
2022/02/14 18:49:22;;;;;;;;;;;7.70;99.90;;;;;;8389675;28;20067;-68
2022/02/14 18:53:23;;;;;;;;;;;7.70;99.90;;;;;;8386572;28;19925;-69
2022/02/14 18:57:25;;;;;;;;;;;7.70;99.90;;;;;;8381016;28;19935;-69
2022/02/14 19:01:26;;;;;;;;;;;7.80;99.90;;;;;;8364930;28;19928;-69
2022/02/14 19:05:48;;;;;;;;;;;7.90;99.90;;;;;;8378824;28;19925;-68
2022/02/14 19:09:50;;;;;;;;;;;7.90;99.90;;;;;;8396427;28;19963;-75
2022/02/14 19:13:51;;;;;;;;;;;8.00;99.90;;;;;;8397277;28;19960;-76
2022/02/14 19:17:53;;;;;;;;;;;8.00;99.90;;;;;;8396720;28;19929;-76
2022/02/14 19:21:55;;;;;;;;;;;8.10;99.90;;;;;;8393607;28;19967;-75
2022/02/14 19:25:59;;;;;;;;;;;8.10;99.90;;;;;;8378264;28;19932;-76
2022/02/14 19:30:02;;;;;;;;;;;8.10;99.90;;;;;;8394053;28;19943;-76
2022/02/14 19:34:04;;;;;;;;;;;8.10;99.90;;;;;;8398300;28;19967;-76
2022/02/14 19:38:06;;;;;;;;;;;8.10;99.90;;;;;;8395210;28;19960;-75
2022/02/14 19:42:07;;;;;;;;;;;8.10;99.90;;;;;;8383232;28;20071;-76
2022/02/14 19:46:09;;;;;;;;;;;8.10;99.90;;;;;;8409919;28;19928;-76
2022/02/14 19:50:11;;;;;;;;;;;8.10;99.90;;;;;;8409490;28;19924;-75
2022/02/14 19:54:12;;;;;;;;;;;8.10;99.90;;;;;;8405044;28;19938;-75
2022/02/14 19:58:14;;;;;;;;;;;8.10;99.90;;;;;;8393174;28;20039;-76
2022/02/14 20:02:16;;;;;;;;;;;8.10;99.90;;;;;;8406503;28;19959;-75
2022/02/14 20:06:18;;;;;;;;;;;8.10;99.90;;;;;;8406951;28;20362;-76
2022/02/14 20:10:24;;;;;;;;;;;8.10;99.90;;;;;;8406589;28;19924;-75
2022/02/14 20:14:26;;;;;;;;;;;8.10;99.90;;;;;;8409206;28;20382;-75
2022/02/14 20:18:28;;;;;;;;;;;8.00;99.90;;;;;;8405165;28;19970;-75
2022/02/14 20:22:29;;;;;;;;;;;8.00;99.90;;;;;;8409399;28;19960;-75
2022/02/14 20:26:31;;;;;;;;;;;8.00;99.90;;;;;;8391782;28;19959;-75
2022/02/14 20:30:32;;;;;;;;;;;7.90;99.90;;;;;;8406879;28;19946;-75
2022/02/14 20:34:34;;;;;;;;;;;7.90;99.90;;;;;;8404670;28;19975;-75
2022/02/14 20:38:38;;;;;;;;;;;7.80;99.90;;;;;;8390651;28;19963;-75
2022/02/14 20:42:40;;;;;;;;;;;7.80;99.90;;;;;;8390334;28;20434;-75
2022/02/14 20:46:43;;;;;;;;;;;7.70;99.90;;;;;;8387422;28;19963;-76
2022/02/14 20:50:46;;;;;;;;;;;7.60;99.90;;;;;;8400940;28;20014;-76
2022/02/14 20:54:48;;;;;;;;;;;7.60;99.90;;;;;;8403209;28;19924;-75
2022/02/14 20:58:50;;;;;;;;;;;7.50;99.90;;;;;;8403756;28;19982;-76
2022/02/14 21:02:51;;;;;;;;;;;7.50;99.90;;;;;;8389401;28;19956;-75
2022/02/14 21:06:53;;;;;;;;;;;7.50;99.90;;;;;;8400856;28;20304;-76
2022/02/14 21:10:54;;;;;;;;;;;7.40;99.90;;;;;;8402499;28;19939;-76
2022/02/14 21:14:57;;;;;;;;;;;7.40;99.90;;;;;;8404351;28;19971;-75
2022/02/14 21:18:58;;;;;;;;;;;7.40;99.90;;;;;;8405559;28;19928;-76
2022/02/14 21:23:00;;;;;;;;;;;7.50;99.90;;;;;;8405413;28;20372;-76
2022/02/14 21:27:02;;;;;;;;;;;7.50;99.90;;;;;;8388201;28;19928;-76
2022/02/14 21:31:04;;;;;;;;;;;7.50;99.90;;;;;;8400092;28;20012;-75
2022/02/14 21:35:06;;;;;;;;;;;7.50;99.90;;;;;;8405585;28;19928;-75
2022/02/14 21:39:08;;;;;;;;;;;7.60;99.90;;;;;;8405487;28;19946;-76
2022/02/14 21:43:09;;;;;;;;;;;7.60;99.90;;;;;;8404655;28;19956;-76
2022/02/14 21:47:11;;;;;;;;;;;7.40;99.90;;;;;;8402301;28;20379;-76
2022/02/14 21:51:13;;;;;;;;;;;7.20;99.90;;;;;;8387439;28;19963;-76
2022/02/14 21:55:15;;;;;;;;;;;7.00;99.90;;;;;;8402528;28;19939;-75
2022/02/14 21:59:16;;;;;;;;;;;6.90;99.90;;;;;;8391084;28;20007;-76
2022/02/14 22:03:18;;;;;;;;;;;6.80;99.90;;;;;;8395557;28;20409;-75
2022/02/14 22:07:23;;;;;;;;;;;6.70;99.90;;;;;;8395492;28;19932;-75
2022/02/14 22:11:24;;;;;;;;;;;6.60;99.90;;;;;;8400686;28;19924;-76
2022/02/14 22:15:27;;;;;;;;;;;6.60;99.90;;;;;;8410731;28;19986;-75
2022/02/14 22:19:29;;;;;;;;;;;6.50;99.90;;;;;;8413207;28;20011;-75
2022/02/14 22:23:30;;;;;;;;;;;6.50;99.90;;;;;;8412319;28;19971;-75
2022/02/14 22:27:32;;;;;;;;;;;6.50;99.90;;;;;;8384855;28;20520;-75
2022/02/14 22:31:34;;;;;;;;;;;6.50;99.90;;;;;;8406223;28;19924;-75
2022/02/14 22:35:35;;;;;;;;;;;6.50;99.90;;;;;;8404368;28;20292;-76
2022/02/14 22:39:37;;;;;;;;;;;6.50;99.90;;;;;;8405776;28;20370;-75
2022/02/14 22:43:39;;;;;;;;;;;6.50;99.90;;;;;;8421242;28;20024;-75
2022/02/14 22:47:40;;;;;;;;;;;6.60;99.90;;;;;;8413163;28;19978;-75
2022/02/14 22:51:42;;;;;;;;;;;6.60;99.90;;;;;;8395366;28;19956;-75
2022/02/14 22:55:44;;;;;;;;;;;6.50;99.90;;;;;;8415940;28;19924;-76
2022/02/14 22:59:45;;;;;;;;;;;6.50;99.90;;;;;;8397464;28;19932;-75
2022/02/14 23:03:48;;;;;;;;;;;6.50;99.90;;;;;;8414420;28;19972;-75
2022/02/14 23:16:30;;;;;;;;;;;6.40;99.90;;;;;;8411702;28;19935;-75
2022/02/14 23:20:32;;;;;;;;;;;6.30;99.90;;;;;;8406903;28;19943;-75
2022/02/14 23:24:33;;;;;;;;;;;6.30;99.90;;;;;;8416220;28;20452;-75
2022/02/14 23:28:35;;;;;;;;;;;6.30;99.90;;;;;;8411808;28;19928;-75
2022/02/14 23:32:37;;;;;;;;;;;6.20;99.90;;;;;;8417150;28;19928;-76
2022/02/14 23:36:38;;;;;;;;;;;6.10;99.90;;;;;;8408269;28;20027;-75
2022/02/14 23:40:40;;;;;;;;;;;6.10;99.90;;;;;;8409834;28;19924;-75
2022/02/14 23:44:41;;;;;;;;;;;6.10;99.90;;;;;;8409481;28;20381;-75
2022/02/14 23:48:43;;;;;;;;;;;6.10;99.90;;;;;;8398868;28;19924;-76
2022/02/14 23:52:46;;;;;;;;;;;6.20;99.90;;;;;;8404719;28;19924;-75
2022/02/14 23:56:48;;;;;;;;;;;6.20;99.90;;;;;;8417650;28;20025;-75
